Time;durP1;ratioP1;P1;durP2;ratioP2;P2;SDS_P1;SDS_P2;PMS_P1;PMS_P2;Temp;Humidity;BMP_temperature;BMP_pressure;BME280_temperature;BME280_humidity;BME280_pressure;Samples;Min_cycle;Max_cycle;Signal;HPM_P1;HPM_P2
2022/03/21 00:01:13;;;;;;;94.13;29.33;;;5.60;66.50;;;;;;5053420;28;20331;-77
2022/03/21 00:04:04;;;;;;;104.20;27.93;;;5.50;66.90;;;;;;5079744;28;20293;-75
2022/03/21 00:06:52;;;;;;;88.77;29.53;;;5.50;67.10;;;;;;5064756;28;20753;-75
2022/03/21 00:09:41;;;;;;;86.80;29.03;;;5.40;67.00;;;;;;5061888;28;20250;-75
2022/03/21 00:12:30;;;;;;;95.27;29.87;;;5.50;67.30;;;;;;5054358;28;20229;-77
2022/03/21 00:15:19;;;;;;;110.50;29.83;;;5.40;67.50;;;;;;5057782;28;20215;-76
2022/03/21 00:18:08;;;;;;;95.60;31.60;;;5.30;67.50;;;;;;5043415;28;20238;-77
2022/03/21 00:20:58;;;;;;;96.80;30.60;;;5.40;68.00;;;;;;5041105;28;20229;-76
2022/03/21 00:23:48;;;;;;;87.00;31.43;;;5.30;67.80;;;;;;5073818;28;20268;-78
2022/03/21 00:26:36;;;;;;;105.33;31.33;;;5.30;67.70;;;;;;5052208;28;20431;-77
2022/03/21 00:29:34;;;;;;;98.77;29.43;;;5.30;67.80;;;;;;5069059;28;20231;-77
2022/03/21 00:32:22;;;;;;;127.57;31.80;;;5.30;67.90;;;;;;5042662;28;20218;-77
2022/03/21 00:35:14;;;;;;;127.33;30.57;;;5.20;68.40;;;;;;5058487;28;20838;-78
2022/03/21 00:38:06;;;;;;;136.23;31.73;;;5.20;69.00;;;;;;5062282;28;20224;-76
2022/03/21 00:40:55;;;;;;;92.57;30.13;;;5.20;69.50;;;;;;5054411;28;20388;-78
2022/03/21 00:43:43;;;;;;;102.13;30.20;;;5.10;69.60;;;;;;5078408;28;20230;-77
2022/03/21 00:46:32;;;;;;;104.23;30.70;;;5.10;69.60;;;;;;5090920;28;20289;-77
2022/03/21 00:49:21;;;;;;;123.30;30.17;;;5.00;69.70;;;;;;5082129;28;20223;-78
2022/03/21 00:52:10;;;;;;;102.67;30.73;;;5.00;69.90;;;;;;5102268;28;20228;-77
2022/03/21 00:55:04;;;;;;;90.27;29.37;;;5.00;70.20;;;;;;5088526;28;20230;-79
2022/03/21 00:57:52;;;;;;;104.83;29.93;;;5.00;70.50;;;;;;5078976;28;20252;-77
2022/03/21 01:00:42;;;;;;;84.77;30.10;;;4.90;70.40;;;;;;5051284;28;20330;-78
2022/03/21 01:03:31;;;;;;;89.40;29.93;;;5.00;70.20;;;;;;5077722;28;20264;-76
2022/03/21 01:06:22;;;;;;;86.57;30.47;;;4.90;70.30;;;;;;5057899;28;20308;-77
2022/03/21 01:09:17;;;;;;;80.20;30.13;;;5.00;70.30;;;;;;5074787;28;20235;-77
2022/03/21 01:12:09;;;;;;;67.83;29.93;;;5.00;70.20;;;;;;5073909;28;20223;-77
2022/03/21 01:14:58;;;;;;;140.30;31.80;;;4.90;70.10;;;;;;5061974;28;20225;-78
2022/03/21 01:17:48;;;;;;;141.30;32.80;;;5.00;70.60;;;;;;5076058;28;20253;-77
2022/03/21 01:20:37;;;;;;;105.00;32.87;;;5.00;69.80;;;;;;5077117;28;20221;-77
2022/03/21 01:23:25;;;;;;;138.80;33.87;;;5.00;70.10;;;;;;5073038;28;20780;-76
2022/03/21 01:26:14;;;;;;;209.27;36.73;;;5.00;70.30;;;;;;5051434;28;20416;-77
2022/03/21 01:29:04;;;;;;;179.03;36.90;;;5.00;71.00;;;;;;5078864;28;20275;-77
2022/03/21 01:31:53;;;;;;;193.60;35.47;;;4.90;71.50;;;;;;5062165;28;20695;-77
2022/03/21 01:34:41;;;;;;;184.17;34.47;;;4.90;71.80;;;;;;5075768;28;20225;-77
2022/03/21 01:37:30;;;;;;;157.73;32.07;;;4.90;71.90;;;;;;5060255;28;20230;-74
2022/03/21 01:40:19;;;;;;;151.43;33.97;;;4.80;72.00;;;;;;5075946;28;20880;-72
2022/03/21 01:43:10;;;;;;;138.17;32.43;;;4.80;72.20;;;;;;5062762;28;20762;-73
2022/03/21 01:46:00;;;;;;;132.90;31.83;;;4.70;72.30;;;;;;5058673;28;20215;-75
2022/03/21 01:48:49;;;;;;;162.90;32.63;;;4.70;72.40;;;;;;5072125;28;20228;-76
2022/03/21 01:51:39;;;;;;;124.03;30.37;;;4.70;72.50;;;;;;5060780;28;20674;-77
2022/03/21 01:57:34;;;;;;;94.97;28.80;;;4.70;72.70;;;;;;5062704;28;20237;-77
2022/03/21 02:00:24;;;;;;;106.83;29.67;;;4.70;73.00;;;;;;5073181;28;20220;-76
2022/03/21 02:03:14;;;;;;;112.57;29.03;;;4.60;73.10;;;;;;5060985;28;20925;-76
2022/03/21 02:06:04;;;;;;;95.67;28.60;;;4.60;73.20;;;;;;5076969;28;20356;-77
2022/03/21 02:08:52;;;;;;;96.57;28.50;;;4.60;73.20;;;;;;5056840;28;20227;-76
2022/03/21 02:11:41;;;;;;;90.43;27.53;;;4.60;73.20;;;;;;5058023;28;20213;-76
2022/03/21 02:14:31;;;;;;;92.03;27.53;;;4.50;73.50;;;;;;5058684;28;20219;-76
2022/03/21 02:17:22;;;;;;;83.70;27.27;;;4.50;73.70;;;;;;5063987;28;20221;-73
2022/03/21 02:20:13;;;;;;;96.30;27.30;;;4.40;74.20;;;;;;5075648;28;20221;-74
2022/03/21 02:23:11;;;;;;;109.97;29.33;;;4.40;74.40;;;;;;5084914;28;20218;-75
2022/03/21 02:26:03;;;;;;;92.07;27.40;;;4.40;74.60;;;;;;5062747;28;20939;-74
2022/03/21 02:28:52;;;;;;;105.83;27.30;;;4.40;74.80;;;;;;5070203;28;20228;-75
2022/03/21 02:31:41;;;;;;;151.33;29.23;;;4.40;75.00;;;;;;5074717;28;20603;-75
2022/03/21 02:34:30;;;;;;;147.07;30.10;;;4.40;74.90;;;;;;5079518;28;20217;-74
2022/03/21 02:37:22;;;;;;;135.30;29.07;;;4.40;74.40;;;;;;5080255;28;20240;-74
2022/03/21 02:40:11;;;;;;;148.83;28.43;;;4.40;74.40;;;;;;5078849;28;20223;-74
2022/03/21 02:43:01;;;;;;;111.97;26.30;;;4.40;74.30;;;;;;5077706;28;20212;-74
2022/03/21 02:45:50;;;;;;;122.30;28.37;;;4.40;74.30;;;;;;5059922;28;20239;-74
2022/03/21 02:48:39;;;;;;;98.87;28.50;;;4.40;74.50;;;;;;5079922;28;20224;-74
2022/03/21 02:51:30;;;;;;;87.50;27.17;;;4.40;74.90;;;;;;5077075;28;20611;-74
2022/03/21 02:54:21;;;;;;;120.10;28.07;;;4.40;75.10;;;;;;5066613;28;20235;-74
2022/03/21 02:57:09;;;;;;;133.20;28.73;;;4.40;75.70;;;;;;5079618;28;20215;-75
2022/03/21 03:00:04;;;;;;;119.40;29.53;;;4.40;75.90;;;;;;5060126;28;20222;-74
2022/03/21 03:02:53;;;;;;;128.63;30.37;;;4.40;76.00;;;;;;5076697;28;20229;-75
2022/03/21 03:05:42;;;;;;;85.20;28.40;;;4.40;76.50;;;;;;5065642;28;20538;-74
2022/03/21 03:08:30;;;;;;;66.93;27.03;;;4.40;76.40;;;;;;5090774;28;20234;-76
2022/03/21 03:11:19;;;;;;;87.20;26.47;;;4.40;76.30;;;;;;5091257;28;20231;-76
2022/03/21 03:14:08;;;;;;;69.90;25.50;;;4.40;76.00;;;;;;5085221;28;20315;-76
2022/03/21 03:16:58;;;;;;;34.47;18.80;;;4.40;76.00;;;;;;5078833;28;20757;-76
2022/03/21 03:19:46;;;;;;;41.40;21.00;;;4.40;73.10;;;;;;5092899;28;20569;-76
2022/03/21 03:22:40;;;;;;;83.00;25.03;;;4.50;72.30;;;;;;5076000;28;20316;-76
2022/03/21 03:25:29;;;;;;;64.67;25.53;;;4.40;74.40;;;;;;5063972;28;20310;-76
2022/03/21 03:28:18;;;;;;;65.70;28.00;;;4.50;74.70;;;;;;5080137;28;20216;-75
2022/03/21 03:31:27;;;;;;;59.03;26.73;;;4.50;74.90;;;;;;5063553;28;20583;-75
2022/03/21 03:34:17;;;;;;;48.13;24.23;;;4.50;75.50;;;;;;5060950;28;20211;-78
2022/03/21 03:37:10;;;;;;;48.63;25.27;;;4.50;75.90;;;;;;5062589;28;20723;-77
2022/03/21 03:39:59;;;;;;;50.80;25.27;;;4.50;75.80;;;;;;5055222;28;20224;-75
2022/03/21 03:42:47;;;;;;;54.00;25.90;;;4.50;76.00;;;;;;5078234;28;20278;-75
2022/03/21 03:45:36;;;;;;;48.77;24.57;;;4.50;76.30;;;;;;5064078;28;20794;-75
2022/03/21 03:48:25;;;;;;;53.00;23.87;;;4.40;75.90;;;;;;5082253;28;20593;-73
2022/03/21 03:51:15;;;;;;;47.37;24.40;;;4.40;74.50;;;;;;5074916;28;20288;-74
2022/03/21 03:54:04;;;;;;;50.00;26.37;;;4.30;73.20;;;;;;5078512;28;20689;-78
2022/03/21 03:56:53;;;;;;;49.93;26.23;;;4.30;72.60;;;;;;5060424;28;20219;-77
2022/03/21 03:59:41;;;;;;;49.77;25.90;;;4.40;72.30;;;;;;5077475;28;20223;-79
2022/03/21 04:03:44;;;;;;;51.37;26.90;;;4.50;72.10;;;;;;5069854;28;20978;-78
2022/03/21 04:05:39;;;;;;;53.97;27.70;;;4.50;71.50;;;;;;5080348;28;20226;-78
2022/03/21 04:08:29;;;;;;;57.13;30.37;;;4.30;71.60;;;;;;5077067;28;20214;-78
2022/03/21 04:11:18;;;;;;;58.27;28.47;;;4.20;71.60;;;;;;5060291;28;20238;-77
2022/03/21 04:14:07;;;;;;;66.47;31.97;;;4.20;71.50;;;;;;5072851;28;20222;-78
2022/03/21 04:17:01;;;;;;;71.10;31.17;;;4.20;71.10;;;;;;5060113;28;20426;-78
2022/03/21 04:19:49;;;;;;;66.13;30.93;;;4.30;71.10;;;;;;5061161;28;20399;-79
2022/03/21 04:22:38;;;;;;;61.37;30.00;;;4.30;71.10;;;;;;5061421;28;20235;-78
2022/03/21 04:25:29;;;;;;;67.73;31.03;;;4.30;71.10;;;;;;5064143;28;20274;-78
2022/03/21 04:28:18;;;;;;;72.43;31.93;;;4.30;72.20;;;;;;5076516;28;20208;-77
2022/03/21 04:31:07;;;;;;;107.17;37.97;;;4.40;72.40;;;;;;5077270;28;20227;-76
2022/03/21 04:33:56;;;;;;;108.83;35.43;;;4.40;72.90;;;;;;5077919;28;20226;-76
2022/03/21 04:36:46;;;;;;;97.90;35.90;;;4.40;72.70;;;;;;5072768;28;20563;-76
2022/03/21 04:39:35;;;;;;;86.67;35.93;;;4.50;72.60;;;;;;5077379;28;20233;-73
2022/03/21 04:42:25;;;;;;;88.17;34.37;;;4.40;73.00;;;;;;5080027;28;20230;-74
2022/03/21 04:45:14;;;;;;;75.53;34.07;;;4.40;73.00;;;;;;5065297;28;20720;-73
2022/03/21 04:48:03;;;;;;;65.63;29.87;;;4.40;73.00;;;;;;5059528;28;20230;-73
2022/03/21 04:50:52;;;;;;;52.50;27.13;;;4.40;72.80;;;;;;5060682;28;20260;-74
2022/03/21 04:53:41;;;;;;;54.23;27.83;;;4.30;71.70;;;;;;5064044;28;20220;-75
2022/03/21 04:56:30;;;;;;;56.10;27.30;;;4.30;70.90;;;;;;5045902;28;21040;-74
2022/03/21 04:59:20;;;;;;;60.80;29.63;;;4.20;71.40;;;;;;5079972;28;20246;-74
2022/03/21 05:02:08;;;;;;;61.37;29.80;;;4.20;70.80;;;;;;5051859;28;20232;-75
2022/03/21 05:04:57;;;;;;;61.63;30.50;;;4.10;70.90;;;;;;5077065;28;20260;-77
2022/03/21 05:07:49;;;;;;;53.43;28.73;;;4.10;71.00;;;;;;5077922;28;20230;-71
2022/03/21 05:10:38;;;;;;;60.43;30.40;;;4.10;70.90;;;;;;5058781;28;20224;-70
2022/03/21 05:13:28;;;;;;;62.90;30.53;;;4.10;71.20;;;;;;5075441;28;20217;-71
2022/03/21 05:16:19;;;;;;;60.20;30.50;;;4.20;71.20;;;;;;5061537;28;20216;-69
2022/03/21 05:19:07;;;;;;;66.80;32.83;;;4.20;71.00;;;;;;5078345;28;20224;-69
2022/03/21 05:22:00;;;;;;;58.37;30.77;;;4.20;71.30;;;;;;5060815;28;20233;-71
2022/03/21 05:31:02;;;;;;;73.80;35.70;;;4.20;71.60;;;;;;5060104;28;20221;-77
2022/03/21 05:36:59;;;;;;;75.00;35.67;;;4.20;72.30;;;;;;5069196;28;20232;-75
2022/03/21 05:42:50;;;;;;;66.30;35.30;;;4.40;72.00;;;;;;5079597;28;20224;-74
2022/03/21 05:45:39;;;;;;;67.60;34.67;;;4.60;71.70;;;;;;5083125;28;20223;-72
2022/03/21 05:51:38;;;;;;;69.10;35.23;;;4.40;71.70;;;;;;5064343;28;20247;-78
2022/03/21 05:54:27;;;;;;;64.27;33.63;;;4.50;71.50;;;;;;5075186;28;20221;-77
2022/03/21 05:57:15;;;;;;;72.57;37.43;;;4.60;71.30;;;;;;5075517;28;20223;-77
2022/03/21 06:00:24;;;;;;;78.57;36.07;;;4.60;71.20;;;;;;5077588;28;20377;-76
2022/03/21 06:03:12;;;;;;;72.70;36.70;;;4.60;70.90;;;;;;5062787;28;20727;-78
2022/03/21 06:06:01;;;;;;;76.43;36.67;;;4.70;71.30;;;;;;5076489;28;20226;-77
2022/03/21 06:08:53;;;;;;;75.10;35.63;;;4.70;71.50;;;;;;5067708;28;20221;-79
2022/03/21 06:11:48;;;;;;;64.10;33.60;;;4.80;71.10;;;;;;5079626;28;20232;-79
2022/03/21 06:14:36;;;;;;;67.33;31.97;;;4.90;70.80;;;;;;5083788;28;20256;-76
2022/03/21 06:17:29;;;;;;;69.13;32.03;;;4.90;70.20;;;;;;5077547;28;20627;-76
2022/03/21 06:20:19;;;;;;;68.87;31.43;;;5.00;70.20;;;;;;5080868;28;20213;-76
2022/03/21 06:23:07;;;;;;;61.97;30.30;;;5.00;69.90;;;;;;5073680;28;20306;-77
2022/03/21 06:25:58;;;;;;;63.10;30.73;;;5.00;69.70;;;;;;5076191;28;20221;-75
2022/03/21 06:28:47;;;;;;;60.90;30.63;;;5.20;69.50;;;;;;5078265;28;20224;-76
2022/03/21 06:31:36;;;;;;;66.53;31.27;;;5.20;69.30;;;;;;5079339;28;20678;-76
2022/03/21 06:34:25;;;;;;;72.07;32.10;;;5.30;69.10;;;;;;5081611;28;20731;-75
2022/03/21 06:37:14;;;;;;;66.03;31.87;;;5.40;69.40;;;;;;5078296;28;20720;-75
2022/03/21 06:40:03;;;;;;;80.80;32.10;;;5.50;68.90;;;;;;5063778;28;20238;-76
2022/03/21 06:42:53;;;;;;;76.53;34.23;;;5.60;68.80;;;;;;5076119;28;20712;-78
2022/03/21 06:45:42;;;;;;;67.40;31.97;;;5.70;69.00;;;;;;5078499;28;20215;-77
2022/03/21 06:48:33;;;;;;;94.17;32.83;;;5.60;69.00;;;;;;5064022;28;20215;-77
2022/03/21 06:51:21;;;;;;;85.20;32.27;;;5.70;69.00;;;;;;5065248;28;20259;-76
2022/03/21 06:54:10;;;;;;;235.90;39.47;;;5.90;68.90;;;;;;5061355;28;20227;-75
2022/03/21 06:56:59;;;;;;;65.07;28.70;;;6.00;68.40;;;;;;5078316;28;20226;-71
2022/03/21 06:59:49;;;;;;;62.47;29.63;;;6.10;67.60;;;;;;5073061;28;20886;-71
2022/03/21 07:02:37;;;;;;;338.63;44.20;;;6.20;67.10;;;;;;5076556;28;20229;-74
2022/03/21 07:05:28;;;;;;;70.13;31.57;;;6.30;67.00;;;;;;5079525;28;20212;-75
2022/03/21 07:08:18;;;;;;;106.03;33.83;;;6.20;66.90;;;;;;5062593;28;20353;-68
2022/03/21 07:11:12;;;;;;;84.53;32.77;;;6.30;67.00;;;;;;5075015;28;20604;-74
2022/03/21 07:14:00;;;;;;;70.67;32.73;;;6.30;67.30;;;;;;5060905;28;20726;-76
2022/03/21 07:16:51;;;;;;;69.87;32.20;;;6.40;67.40;;;;;;5062060;28;20344;-73
2022/03/21 07:19:39;;;;;;;66.90;31.80;;;6.60;67.30;;;;;;5069847;28;20223;-70
2022/03/21 07:22:31;;;;;;;60.03;30.10;;;6.70;67.00;;;;;;5061858;28;20224;-68
2022/03/21 07:25:24;;;;;;;51.70;25.03;;;6.90;66.20;;;;;;5074043;28;20315;-72
2022/03/21 07:28:13;;;;;;;42.40;22.27;;;6.90;65.70;;;;;;5078353;28;20219;-76
2022/03/21 07:31:02;;;;;;;47.17;22.33;;;7.00;64.50;;;;;;5065152;28;20232;-73
2022/03/21 07:33:52;;;;;;;43.93;23.03;;;7.10;63.70;;;;;;5064990;28;20225;-71
2022/03/21 07:36:41;;;;;;;43.90;22.47;;;7.30;63.40;;;;;;5067624;28;20594;-72
2022/03/21 07:39:33;;;;;;;40.07;22.07;;;7.40;63.30;;;;;;5063708;28;20208;-71
2022/03/21 07:42:22;;;;;;;39.77;20.37;;;7.50;63.10;;;;;;5079747;28;20518;-72
2022/03/21 07:48:18;;;;;;;43.20;22.53;;;7.80;62.10;;;;;;5074838;28;20215;-69
2022/03/21 07:51:08;;;;;;;37.87;21.70;;;7.90;61.90;;;;;;5071962;28;20658;-71
2022/03/21 07:53:56;;;;;;;45.40;21.63;;;8.10;61.70;;;;;;5081488;28;20230;-71
2022/03/21 07:56:45;;;;;;;40.57;20.87;;;8.30;61.30;;;;;;5082766;28;20216;-71
2022/03/21 07:59:34;;;;;;;39.93;22.10;;;8.70;61.00;;;;;;5086577;28;20222;-68
2022/03/21 08:02:25;;;;;;;41.67;22.45;;;10.20;60.10;;;;;;5096673;28;20212;-66
2022/03/21 08:05:15;;;;;;;43.92;21.25;;;14.30;55.10;;;;;;5073791;28;20289;-70
2022/03/21 08:08:07;;;;;;;46.60;23.55;;;16.20;50.40;;;;;;5078907;28;20227;-70
2022/03/21 08:10:56;;;;;;;34.40;20.55;;;17.10;48.50;;;;;;5081712;28;20301;-69
2022/03/21 08:13:49;;;;;;;34.28;20.23;;;18.10;46.10;;;;;;5079844;28;20219;-70
2022/03/21 08:16:38;;;;;;;37.22;20.75;;;19.30;44.30;;;;;;5079881;28;20678;-70
2022/03/21 08:19:29;;;;;;;37.00;19.33;;;20.60;43.00;;;;;;5052143;28;20227;-70
2022/03/21 08:22:17;;;;;;;31.83;19.88;;;20.90;41.20;;;;;;5074060;28;20890;-70
2022/03/21 08:25:12;;;;;;;33.25;21.17;;;20.50;40.90;;;;;;5077539;28;20692;-70
2022/03/21 08:28:01;;;;;;;36.50;21.92;;;20.70;40.30;;;;;;5063880;28;20855;-71
2022/03/21 08:30:50;;;;;;;36.17;22.35;;;20.50;40.50;;;;;;5061056;28;20231;-71
2022/03/21 08:33:39;;;;;;;33.78;20.30;;;22.00;39.10;;;;;;5057901;28;20223;-71
2022/03/21 08:36:28;;;;;;;29.73;18.75;;;22.30;37.90;;;;;;5074753;28;20292;-72
2022/03/21 08:39:18;;;;;;;33.85;19.75;;;21.90;37.60;;;;;;5078248;28;20286;-71
2022/03/21 08:42:08;;;;;;;34.03;19.15;;;21.90;38.00;;;;;;5045955;28;20231;-73
2022/03/21 08:44:57;;;;;;;51.10;20.88;;;21.10;38.80;;;;;;5055739;28;20233;-72
2022/03/21 08:47:47;;;;;;;30.65;20.67;;;22.70;37.30;;;;;;5040763;28;20239;-72
2022/03/21 08:50:37;;;;;;;34.55;20.15;;;22.90;37.70;;;;;;5078647;28;20238;-71
2022/03/21 08:53:26;;;;;;;33.60;20.33;;;22.90;36.10;;;;;;5072402;28;20338;-69
2022/03/21 08:56:15;;;;;;;29.38;20.67;;;23.50;35.80;;;;;;5057013;28;20590;-72
2022/03/21 08:59:05;;;;;;;29.35;20.63;;;23.70;35.10;;;;;;5063967;28;20219;-71
2022/03/21 09:01:53;;;;;;;35.55;22.08;;;23.70;35.60;;;;;;5077942;28;20219;-71
2022/03/21 09:04:42;;;;;;;39.95;22.95;;;24.00;34.90;;;;;;5062928;28;20226;-72
2022/03/21 09:07:32;;;;;;;35.10;21.73;;;24.40;34.40;;;;;;5057555;28;20235;-70
2022/03/21 09:10:20;;;;;;;32.50;21.33;;;24.10;34.60;;;;;;5077391;28;20292;-71
2022/03/21 09:13:09;;;;;;;28.75;19.80;;;23.30;35.10;;;;;;5059409;28;20227;-71
2022/03/21 09:15:59;;;;;;;30.00;18.63;;;22.80;35.10;;;;;;5075773;28;20846;-72
2022/03/21 09:18:48;;;;;;;26.25;17.73;;;22.30;34.90;;;;;;5076530;28;20232;-71
2022/03/21 09:21:37;;;;;;;24.92;16.92;;;18.70;35.90;;;;;;5057731;28;20238;-72
2022/03/21 09:24:25;;;;;;;27.23;15.48;;;15.80;39.20;;;;;;5077291;28;20215;-72
2022/03/21 09:27:16;;;;;;;31.45;18.17;;;14.60;42.00;;;;;;5072758;28;20230;-71
2022/03/21 09:30:06;;;;;;;24.63;16.40;;;13.90;43.80;;;;;;5058221;28;20216;-72
2022/03/21 09:32:57;;;;;;;27.85;17.40;;;12.90;45.00;;;;;;5074776;28;20228;-72
2022/03/21 09:35:47;;;;;;;32.08;17.08;;;12.70;46.00;;;;;;5075456;28;20302;-71
2022/03/21 09:38:37;;;;;;;26.65;16.58;;;12.70;46.60;;;;;;5075396;28;20226;-71
2022/03/21 09:41:26;;;;;;;29.27;17.15;;;12.20;46.50;;;;;;5076538;28;20235;-71
2022/03/21 09:44:15;;;;;;;27.38;16.67;;;12.10;47.20;;;;;;5059969;28;20674;-71
2022/03/21 09:48:08;;;;;;;27.92;16.10;;;12.00;47.40;;;;;;5075895;28;20223;-71
2022/03/21 09:50:17;;;;;;;23.05;15.90;;;12.20;47.60;;;;;;5067493;28;20230;-70
2022/03/21 09:53:07;;;;;;;21.42;14.27;;;12.00;47.30;;;;;;5064120;28;20836;-71
2022/03/21 09:55:57;;;;;;;22.80;14.18;;;12.00;46.90;;;;;;5061342;28;20561;-71
2022/03/21 09:58:50;;;;;;;21.58;14.02;;;11.70;47.00;;;;;;5077628;28;22432;-72
2022/03/21 10:01:41;;;;;;;26.83;15.60;;;12.00;46.90;;;;;;5057565;28;20216;-71
2022/03/21 10:04:30;;;;;;;28.42;16.38;;;11.80;47.50;;;;;;5061459;28;20235;-71
2022/03/21 10:07:26;;;;;;;31.05;16.52;;;11.90;47.70;;;;;;5082891;28;20562;-72
2022/03/21 10:10:16;;;;;;;27.50;15.20;;;12.10;47.50;;;;;;5064894;28;20713;-70
2022/03/21 10:13:09;;;;;;;25.08;15.50;;;11.90;47.40;;;;;;5075056;28;20315;-72
2022/03/21 10:16:10;;;;;;;24.63;14.48;;;11.80;47.40;;;;;;5079227;28;20230;-72
2022/03/21 10:19:00;;;;;;;24.67;15.55;;;11.70;47.20;;;;;;5079273;28;20966;-72
2022/03/21 10:22:07;;;;;;;25.38;15.82;;;11.80;47.50;;;;;;5092259;28;20234;-72
2022/03/21 10:25:04;;;;;;;27.48;15.70;;;11.70;47.30;;;;;;5072247;28;20226;-71
2022/03/21 10:27:52;;;;;;;29.10;15.15;;;11.80;47.30;;;;;;5073269;28;20232;-71
2022/03/21 10:30:44;;;;;;;24.48;15.27;;;11.70;47.20;;;;;;5089411;28;20228;-71
2022/03/21 10:33:33;;;;;;;26.25;14.93;;;11.90;47.10;;;;;;5079346;28;20224;-71
2022/03/21 10:36:22;;;;;;;28.15;14.07;;;11.80;46.80;;;;;;5083505;28;20219;-72
2022/03/21 10:39:13;;;;;;;23.90;15.02;;;11.90;46.60;;;;;;5077115;28;20223;-72
2022/03/21 10:42:09;;;;;;;25.40;15.25;;;12.00;46.40;;;;;;5065401;28;20219;-72
2022/03/21 10:45:02;;;;;;;21.95;14.07;;;12.10;46.40;;;;;;5076880;28;20266;-72
2022/03/21 10:47:51;;;;;;;24.13;14.48;;;12.10;46.30;;;;;;5059872;28;20227;-72
2022/03/21 10:50:42;;;;;;;22.10;13.60;;;12.10;46.40;;;;;;5073860;28;21137;-71
2022/03/21 10:53:39;;;;;;;20.98;13.60;;;12.30;46.70;;;;;;5077368;28;20219;-71
2022/03/21 10:56:40;;;;;;;23.13;13.35;;;12.30;47.00;;;;;;5060279;28;20221;-71
2022/03/21 10:59:30;;;;;;;23.60;13.90;;;12.30;46.00;;;;;;5059123;28;20216;-71
2022/03/21 11:02:19;;;;;;;23.08;13.80;;;12.40;45.70;;;;;;5062253;28;20236;-73
2022/03/21 11:05:08;;;;;;;21.67;13.60;;;12.40;45.50;;;;;;5062411;28;20231;-72
2022/03/21 11:07:58;;;;;;;21.63;13.75;;;12.40;45.70;;;;;;5056249;28;20227;-70
2022/03/21 11:10:47;;;;;;;19.05;13.20;;;12.40;45.80;;;;;;5066780;28;20223;-71
2022/03/21 11:13:38;;;;;;;21.63;12.55;;;12.30;45.80;;;;;;5057021;28;20228;-71
2022/03/21 11:16:28;;;;;;;22.40;12.60;;;12.40;45.80;;;;;;5064426;28;20961;-70
2022/03/21 11:19:17;;;;;;;20.92;12.80;;;12.40;45.70;;;;;;5066749;28;20240;-72
2022/03/21 11:22:07;;;;;;;22.02;13.32;;;12.40;45.50;;;;;;5048391;28;20220;-71
2022/03/21 11:25:01;;;;;;;19.48;12.40;;;12.40;45.30;;;;;;5048302;28;20670;-71
2022/03/21 11:28:39;;;;;;;19.88;12.45;;;12.40;45.50;;;;;;5057938;28;20216;-71
2022/03/21 11:31:47;;;;;;;19.90;12.45;;;12.50;45.50;;;;;;5018077;28;20695;-70
2022/03/21 11:34:47;;;;;;;22.13;12.65;;;12.70;45.60;;;;;;5082762;28;20435;-71
2022/03/21 11:37:37;;;;;;;21.92;11.25;;;12.70;45.40;;;;;;5050168;28;20724;-71
2022/03/21 11:40:32;;;;;;;19.08;12.23;;;12.70;45.40;;;;;;5055724;28;20706;-71
2022/03/21 11:43:32;;;;;;;22.20;12.80;;;12.60;45.00;;;;;;5079624;28;20216;-71
2022/03/21 11:46:25;;;;;;;20.40;11.85;;;12.70;44.90;;;;;;5080142;28;20266;-70
2022/03/21 11:49:46;;;;;;;18.90;11.93;;;12.70;45.00;;;;;;5076277;28;20804;-71
2022/03/21 11:53:08;;;;;;;19.95;11.82;;;12.50;45.10;;;;;;5079944;28;20234;-71
2022/03/21 11:55:56;;;;;;;21.55;11.85;;;12.60;45.40;;;;;;5081172;28;20230;-70
2022/03/21 11:59:00;;;;;;;21.83;11.63;;;12.70;45.40;;;;;;5078487;28;20234;-71
2022/03/21 12:01:50;;;;;;;19.10;12.40;;;12.70;45.30;;;;;;5077552;28;20306;-72
2022/03/21 12:04:39;;;;;;;20.85;11.98;;;12.70;45.50;;;;;;5073385;28;20247;-72
2022/03/21 12:07:31;;;;;;;15.60;10.82;;;12.80;46.00;;;;;;5077591;28;20642;-71
2022/03/21 12:10:38;;;;;;;17.35;10.65;;;12.70;45.70;;;;;;5055613;28;20905;-72
2022/03/21 12:13:41;;;;;;;19.88;11.73;;;12.90;46.00;;;;;;5057476;28;20219;-71
2022/03/21 12:16:30;;;;;;;17.60;11.70;;;12.90;45.90;;;;;;5057458;28;20354;-72
2022/03/21 12:19:20;;;;;;;18.15;12.00;;;12.90;46.00;;;;;;5077715;28;20242;-71
2022/03/21 12:22:35;;;;;;;20.65;12.13;;;12.80;46.10;;;;;;5056650;28;20254;-71
2022/03/21 12:25:44;;;;;;;18.48;12.07;;;12.80;46.10;;;;;;5076221;28;20215;-72
2022/03/21 12:31:42;;;;;;;16.40;11.70;;;13.00;46.90;;;;;;5059897;28;20216;-71
2022/03/21 12:34:37;;;;;;;18.90;11.80;;;13.00;47.00;;;;;;5074952;28;20307;-74
2022/03/21 12:37:41;;;;;;;20.50;12.23;;;13.10;47.00;;;;;;5074700;28;20773;-71
2022/03/21 12:40:33;;;;;;;20.48;12.23;;;13.20;47.10;;;;;;5077575;28;20227;-71
2022/03/21 12:43:52;;;;;;;36.15;12.60;;;13.00;47.20;;;;;;5060057;28;20255;-70
2022/03/21 12:46:43;;;;;;;16.80;11.65;;;13.00;47.50;;;;;;5083540;28;20303;-71
2022/03/21 12:49:47;;;;;;;21.27;13.13;;;13.00;47.70;;;;;;5068710;28;20223;-70
2022/03/21 12:52:37;;;;;;;19.30;11.95;;;13.10;47.70;;;;;;5079227;28;20219;-72
2022/03/21 12:55:27;;;;;;;24.10;12.85;;;13.00;47.30;;;;;;5065572;28;20720;-73
2022/03/21 12:58:18;;;;;;;19.33;12.43;;;13.00;47.40;;;;;;5075800;28;20223;-71
2022/03/21 13:01:10;;;;;;;19.20;11.80;;;13.00;47.40;;;;;;5063604;28;20215;-71
2022/03/21 13:13:22;;;;;;;16.98;11.27;;;13.00;47.30;;;;;;5064429;28;20219;-72
2022/03/21 13:16:11;;;;;;;20.52;10.98;;;13.10;47.40;;;;;;5078754;28;20567;-72
2022/03/21 13:19:00;;;;;;;20.35;11.88;;;13.10;47.00;;;;;;5064885;28;20216;-71
2022/03/21 13:21:53;;;;;;;21.20;12.30;;;13.10;47.20;;;;;;5074707;28;20584;-73
2022/03/21 13:24:44;;;;;;;19.27;13.40;;;13.10;47.50;;;;;;5062019;28;20232;-73
2022/03/21 13:27:36;;;;;;;23.60;13.20;;;13.10;47.70;;;;;;5071956;28;20651;-73
2022/03/21 13:30:26;;;;;;;18.10;12.32;;;13.10;47.80;;;;;;5068283;28;20325;-72
2022/03/21 13:33:21;;;;;;;20.13;12.43;;;13.20;47.70;;;;;;5067997;28;20276;-72
2022/03/21 13:36:16;;;;;;;19.23;12.27;;;13.20;48.00;;;;;;5072072;28;20231;-71
2022/03/21 13:39:11;;;;;;;21.17;12.27;;;13.20;48.10;;;;;;5070478;28;20804;-71
2022/03/21 13:42:03;;;;;;;21.92;12.68;;;13.20;48.10;;;;;;5057914;28;20348;-71
2022/03/21 13:44:54;;;;;;;18.45;11.90;;;13.30;48.40;;;;;;5051393;28;21070;-72
2022/03/21 13:47:52;;;;;;;17.92;11.65;;;13.30;48.00;;;;;;5064989;28;20295;-72
2022/03/21 13:50:43;;;;;;;17.10;12.35;;;13.30;47.70;;;;;;5070282;28;20269;-72
2022/03/21 13:53:33;;;;;;;20.45;12.55;;;13.30;47.80;;;;;;5069708;28;20234;-70
2022/03/21 13:56:29;;;;;;;23.77;11.88;;;13.30;47.80;;;;;;5059202;28;20227;-71
2022/03/21 13:59:21;;;;;;;20.02;12.27;;;13.20;47.80;;;;;;5071113;28;20219;-70
2022/03/21 14:02:11;;;;;;;19.13;11.15;;;13.20;48.10;;;;;;5075314;28;20319;-71
2022/03/21 14:05:13;;;;;;;18.67;12.05;;;13.30;48.00;;;;;;5058569;28;20316;-72
2022/03/21 14:08:13;;;;;;;17.17;11.00;;;13.30;47.80;;;;;;5072514;28;20969;-72
2022/03/21 14:11:05;;;;;;;16.95;11.15;;;13.30;47.80;;;;;;5060454;28;20699;-71
2022/03/21 14:13:55;;;;;;;18.05;11.88;;;13.30;48.10;;;;;;5053547;28;20716;-71
2022/03/21 14:16:44;;;;;;;16.10;11.07;;;13.30;48.30;;;;;;5057250;28;21046;-72
2022/03/21 14:37:40;;;;;;;20.27;11.10;;;13.30;48.30;;;;;;5056965;27;20600;-72
2022/03/21 14:40:29;;;;;;;20.40;11.35;;;13.20;49.00;;;;;;5056711;28;20601;-70
2022/03/21 14:43:18;;;;;;;18.90;12.27;;;13.20;49.20;;;;;;5070857;28;20347;-70
2022/03/21 14:46:07;;;;;;;19.23;11.43;;;13.20;49.20;;;;;;5069757;28;20224;-71
2022/03/21 14:48:56;;;;;;;24.48;12.55;;;13.30;49.10;;;;;;5053706;28;20235;-72
2022/03/21 14:51:45;;;;;;;18.73;11.63;;;13.30;49.10;;;;;;5061233;28;20269;-70
2022/03/21 14:54:35;;;;;;;21.85;12.38;;;13.30;48.90;;;;;;5067124;28;20219;-71
2022/03/21 14:57:24;;;;;;;16.98;11.65;;;13.30;49.10;;;;;;5069629;28;20257;-69
2022/03/21 15:00:18;;;;;;;19.60;12.02;;;13.30;49.30;;;;;;5069529;28;20223;-70
2022/03/21 15:03:08;;;;;;;19.48;11.88;;;13.30;49.50;;;;;;5065552;28;20228;-71
2022/03/21 15:05:57;;;;;;;18.15;12.15;;;13.20;49.30;;;;;;5069696;28;20597;-71
2022/03/21 15:08:46;;;;;;;20.23;12.55;;;13.20;49.60;;;;;;5070011;28;20222;-70
2022/03/21 15:11:38;;;;;;;21.13;13.23;;;13.20;49.80;;;;;;5046786;28;20220;-71
2022/03/21 15:14:26;;;;;;;18.88;12.25;;;13.20;49.80;;;;;;5066735;28;20217;-73
2022/03/21 15:17:15;;;;;;;19.23;12.55;;;13.20;49.80;;;;;;5070684;28;20287;-69
2022/03/21 15:20:11;;;;;;;17.90;12.27;;;13.20;49.60;;;;;;5069938;28;20219;-70
2022/03/21 15:23:00;;;;;;;17.42;12.10;;;13.20;49.50;;;;;;5068090;28;20223;-71
2022/03/21 15:25:51;;;;;;;20.02;12.73;;;13.10;49.70;;;;;;5052792;28;20639;-70